Terminal Aerodrome Forecast
Issued by NWS

Home | Current Version | Previous Version | Text Only | Print | Product List | Glossary On
Versions: 1 2 3 4 5 6 7 8 9 10 11 12 13 14 15 16 17 18
937
FTUS43 KSGF 262320
TAFBBG
TAF
KBBG 262320Z 2700/2724 31008KT 2SM -DZ BR BKN005 OVC012
     FM270400 29007KT 4SM -DZ BR OVC008
     FM270900 29007KT P6SM BKN020
     FM271300 26004KT P6SM SCT200
     FM272200 16004KT P6SM BKN120=

USA.gov is the U.S. government's official web portal to all federal, state and local government web resources and services.